Time;durP1;ratioP1;P1;durP2;ratioP2;P2;SDS_P1;SDS_P2;PMS_P1;PMS_P2;Temp;Humidity;BMP_temperature;BMP_pressure;BME280_temperature;BME280_humidity;BME280_pressure;Samples;Min_cycle;Max_cycle;Signal;HPM_P1;HPM_P2
2022/01/25 00:09:50;;;;;;;30.93;16.17;;;;;;;0.05;100.00;96712.06;5056711;28;20325;-53
2022/01/25 00:25:58;;;;;;;33.47;15.30;;;;;;;-0.01;100.00;96703.34;5056594;28;20231;-61
2022/01/25 00:28:48;;;;;;;42.53;16.20;;;;;;;-0.03;100.00;96699.38;5055441;28;20220;-61
2022/01/25 00:31:14;;;;;;;31.80;15.77;;;;;;;-0.03;100.00;96699.38;5055296;28;20274;-61
2022/01/25 00:33:41;;;;;;;31.33;15.60;;;;;;;0.00;100.00;96699.53;5054964;28;20265;-61
2022/01/25 00:36:10;;;;;;;29.60;15.37;;;;;;;-0.01;100.00;96697.16;5056150;28;20659;-57
2022/01/25 00:38:35;;;;;;;31.00;15.23;;;;;;;-0.02;100.00;96695.59;5071768;28;20243;-58
2022/01/25 00:41:01;;;;;;;41.33;14.90;;;;;;;-0.06;100.00;96697.28;5055357;28;20193;-53
2022/01/25 00:43:27;;;;;;;30.63;15.73;;;;;;;-0.05;100.00;96706.91;5054797;28;20298;-50
2022/01/25 00:45:57;;;;;;;30.03;15.47;;;;;;;-0.03;100.00;96688.63;5072125;28;20607;-52
2022/01/25 00:48:32;;;;;;;29.10;14.93;;;;;;;-0.02;100.00;96695.59;5072025;28;20187;-53
2022/01/25 00:51:15;;;;;;;38.53;14.53;;;;;;;-0.06;100.00;96683.88;5055184;28;20241;-53
2022/01/25 00:56:22;;;;;;;33.13;15.53;;;;;;;-0.19;100.00;96684.69;5055901;28;20278;-57
2022/01/25 00:58:47;;;;;;;27.73;14.77;;;;;;;-0.14;100.00;96681.91;5071439;28;20197;-61
2022/01/25 01:01:13;;;;;;;27.53;14.93;;;;;;;-0.24;100.00;96680.25;5054620;28;20195;-61
2022/01/25 01:03:38;;;;;;;26.67;14.53;;;;;;;-0.20;100.00;96683.13;5054504;28;20191;-61
2022/01/25 01:06:05;;;;;;;32.27;15.57;;;;;;;-0.14;100.00;96681.91;5054828;28;20264;-61
2022/01/25 01:08:31;;;;;;;33.77;14.30;;;;;;;-0.18;100.00;96691.66;5071017;28;20198;-61
2022/01/25 01:10:59;;;;;;;34.47;15.43;;;;;;;-0.16;100.00;96678.72;5053942;28;20191;-61
2022/01/25 01:48:31;;;;;;;29.23;14.40;;;;;;;-0.21;100.00;96698.41;5055074;28;20660;-57
2022/01/25 01:51:04;;;;;;;28.93;14.27;;;;;;;-0.19;100.00;96701.59;5054088;28;20183;-54
2022/01/25 01:53:31;;;;;;;27.23;14.40;;;;;;;-0.18;100.00;96702.41;5071036;28;20229;-61
2022/01/25 01:55:57;;;;;;;29.53;15.30;;;;;;;-0.09;100.00;96700.56;5071050;28;20195;-61
2022/01/25 01:58:22;;;;;;;28.77;14.30;;;;;;;-0.07;100.00;96701.09;5070463;28;20214;-62
2022/01/25 02:00:48;;;;;;;30.87;14.27;;;;;;;-0.11;100.00;96703.56;5054926;28;20203;-61
2022/01/25 02:03:14;;;;;;;29.37;13.73;;;;;;;-0.11;100.00;96698.19;5070257;28;20222;-61
2022/01/25 02:05:40;;;;;;;29.73;14.40;;;;;;;-0.07;100.00;96698.41;5070232;28;20217;-62
2022/01/25 02:08:06;;;;;;;25.77;13.87;;;;;;;-0.07;100.00;96693.03;5070341;28;20180;-60
2022/01/25 02:10:32;;;;;;;30.47;14.93;;;;;;;-0.06;100.00;96699.97;5070675;28;20215;-65
2022/01/25 02:12:58;;;;;;;29.57;14.17;;;;;;;-0.05;100.00;96685.44;5070273;28;20195;-66
2022/01/25 02:15:28;;;;;;;27.43;14.27;;;;;;;-0.03;100.00;96683.28;5069929;28;20191;-66
2022/01/25 02:23:21;;;;;;;29.37;15.60;;;;;;;-0.05;100.00;96686.25;5054836;28;20248;-66
2022/01/25 02:25:48;;;;;;;36.23;15.60;;;;;;;-0.04;100.00;96682.47;5070300;28;20225;-58
2022/01/25 02:28:14;;;;;;;37.63;17.33;;;;;;;-0.03;100.00;96678.66;5070072;28;20199;-59
2022/01/25 02:30:41;;;;;;;33.10;15.60;;;;;;;-0.01;100.00;96678.38;5069864;28;20190;-57
2022/01/25 02:33:07;;;;;;;28.73;13.83;;;;;;;-0.02;100.00;96679.47;5069983;28;20655;-57
2022/01/25 02:35:32;;;;;;;40.73;16.47;;;;;;;-0.01;100.00;96683.75;5053198;28;20196;-57
2022/01/25 02:37:57;;;;;;;35.03;15.93;;;;;;;-0.03;100.00;96672.53;5054167;28;20253;-57
2022/01/25 02:40:23;;;;;;;40.60;17.67;;;;;;;-0.07;100.00;96682.28;5053082;28;20214;-57
2022/01/25 02:42:50;;;;;;;38.80;16.63;;;;;;;-0.19;100.00;96665.91;5053219;28;20320;-57
2022/01/25 02:45:17;;;;;;;41.27;18.47;;;;;;;-0.21;100.00;96670.81;5052861;28;20306;-59
2022/01/25 02:50:27;;;;;;;32.97;15.53;;;;;;;-0.24;100.00;96666.03;5054556;28;20216;-51
2022/01/25 02:52:52;;;;;;;35.57;14.60;;;;;;;-0.24;100.00;96666.84;5069524;28;20564;-50
2022/01/25 02:55:18;;;;;;;36.10;14.50;;;;;;;-0.31;100.00;96671.03;5069655;28;20266;-51
2022/01/25 02:57:45;;;;;;;33.93;14.47;;;;;;;-0.33;100.00;96663.28;5069282;28;20200;-53
2022/01/25 03:00:11;;;;;;;65.53;15.93;;;;;;;-0.36;100.00;96663.09;5069584;28;20186;-51
2022/01/25 03:02:37;;;;;;;32.73;14.63;;;;;;;-0.41;100.00;96663.19;5069242;28;20344;-63
2022/01/25 03:05:04;;;;;;;36.70;15.07;;;;;;;-0.45;100.00;96670.25;5053761;28;20297;-65
2022/01/25 03:07:29;;;;;;;51.60;14.83;;;;;;;-0.54;100.00;96664.03;5069740;28;20277;-58
2022/01/25 03:09:55;;;;;;;35.57;14.77;;;;;;;-0.56;100.00;96671.56;5052754;28;20207;-58
2022/01/25 03:12:32;;;;;;;30.73;14.63;;;;;;;-0.53;100.00;96673.66;5052483;28;20197;-58
2022/01/25 03:15:12;;;;;;;63.37;15.73;;;;;;;-0.51;100.00;96679.53;5069282;28;20194;-58
2022/01/25 03:17:45;;;;;;;33.03;13.13;;;;;;;-0.47;100.00;96672.47;5069837;28;20525;-58
2022/01/25 03:20:18;;;;;;;34.00;13.73;;;;;;;-0.45;100.00;96672.94;5070049;28;20183;-58
2022/01/25 03:25:18;;;;;;;32.73;12.87;;;;;;;-0.48;100.00;96677.03;5053747;28;20610;-65
2022/01/25 03:27:43;;;;;;;29.73;12.77;;;;;;;-0.47;100.00;96672.47;5069033;28;20186;-65
2022/01/25 03:30:09;;;;;;;31.33;12.90;;;;;;;-0.42;100.00;96678.50;5052471;28;20226;-65
2022/01/25 03:32:35;;;;;;;30.37;12.40;;;;;;;-0.41;100.00;96671.25;5069404;28;20541;-65
2022/01/25 03:35:00;;;;;;;42.00;14.13;;;;;;;-0.50;100.00;96675.75;5071360;28;20190;-65
2022/01/25 03:37:25;;;;;;;33.37;12.80;;;;;;;-0.57;100.00;96683.41;5056023;28;20182;-66
2022/01/25 03:39:51;;;;;;;40.17;14.20;;;;;;;-0.61;100.00;96671.69;5055860;28;20190;-61
2022/01/25 03:42:18;;;;;;;31.67;14.00;;;;;;;-0.60;100.00;96673.28;5072583;28;20184;-65
2022/01/25 03:44:44;;;;;;;29.90;13.03;;;;;;;-0.59;100.00;96670.28;5072466;28;20263;-66
2022/01/25 03:47:14;;;;;;;27.83;13.37;;;;;;;-0.58;100.00;96676.47;5072609;28;20184;-65
2022/01/25 03:49:52;;;;;;;29.70;12.83;;;;;;;-0.64;100.00;96672.28;5055416;28;20190;-65
2022/01/25 03:52:32;;;;;;;28.27;12.90;;;;;;;-0.71;100.00;96671.91;5072184;28;20252;-65
2022/01/25 03:54:58;;;;;;;25.47;12.40;;;;;;;-0.75;100.00;96674.41;5072432;28;20187;-65
2022/01/25 03:57:25;;;;;;;26.00;11.97;;;;;;;-0.75;100.00;96670.91;5055663;28;20181;-66
2022/01/25 03:59:51;;;;;;;29.27;13.40;;;;;;;-0.78;100.00;96672.31;5056843;28;20212;-58
2022/01/25 04:02:16;;;;;;;26.27;11.27;;;;;;;-0.85;100.00;96663.06;5055520;28;20269;-61
2022/01/25 04:04:43;;;;;;;26.50;12.27;;;;;;;-0.83;100.00;96663.56;5072020;28;20205;-62
2022/01/25 04:07:10;;;;;;;32.07;11.30;;;;;;;-0.80;100.00;96668.34;5055449;28;20213;-61
2022/01/25 04:09:37;;;;;;;28.03;11.47;;;;;;;-0.80;100.00;96663.00;5055412;28;20506;-61
2022/01/25 04:12:03;;;;;;;31.57;11.30;;;;;;;-0.89;100.00;96654.84;5072251;28;20570;-61
2022/01/25 04:14:29;;;;;;;22.33;10.83;;;;;;;-0.85;100.00;96660.38;5072025;28;20182;-62
2022/01/25 04:17:08;;;;;;;27.03;11.80;;;;;;;-0.88;100.00;96656.44;5055381;28;20332;-58
2022/01/25 04:19:46;;;;;;;28.20;11.27;;;;;;;-0.86;100.00;96658.81;5055665;28;20218;-61
2022/01/25 04:27:08;;;;;;;24.53;11.00;;;;;;;-0.73;100.00;96658.78;5056377;28;20185;-61
2022/01/25 04:29:34;;;;;;;24.07;11.23;;;;;;;-0.69;100.00;96664.38;5071724;28;20340;-61
2022/01/25 04:32:00;;;;;;;29.13;11.83;;;;;;;-0.69;100.00;96650.97;5055180;28;20323;-61
2022/01/25 04:34:37;;;;;;;28.47;12.20;;;;;;;-0.67;100.00;96654.13;5071710;28;20180;-59
2022/01/25 04:48:53;;;;;;;26.63;11.97;;;;;;;-0.72;100.00;96643.50;5072353;28;20193;-61
2022/01/25 04:55:42;;;;;;;27.47;11.17;;;;;;;-0.81;100.00;96642.59;5056204;28;20189;-57
2022/01/25 04:58:15;;;;;;;23.97;10.30;;;;;;;-0.81;100.00;96631.88;5071798;28;20198;-65
2022/01/25 05:00:41;;;;;;;20.37;9.97;;;;;;;-0.81;100.00;96630.00;5071389;28;20182;-66
2022/01/25 05:03:12;;;;;;;22.20;9.87;;;;;;;-0.78;100.00;96623.25;5071227;28;20188;-65
2022/01/25 05:05:56;;;;;;;27.10;10.23;;;;;;;-0.87;100.00;96627.75;5071509;28;20301;-66
2022/01/25 05:08:36;;;;;;;19.37;9.90;;;;;;;-0.86;100.00;96632.00;5071863;28;20190;-65
2022/01/25 05:14:33;;;;;;;23.93;10.07;;;;;;;-0.91;100.00;96630.22;5055461;28;20200;-58
2022/01/25 05:16:31;;;;;;;26.67;11.07;;;;;;;-0.93;100.00;96631.63;5050655;28;20296;-57
2022/01/25 05:19:22;;;;;;;22.30;10.57;;;;;;;-0.90;100.00;96633.69;5054756;28;20217;-57
2022/01/25 05:24:37;;;;;;;22.27;11.53;;;;;;;-0.79;100.00;96632.41;5055658;28;20253;-57
2022/01/25 05:27:04;;;;;;;23.63;10.30;;;;;;;-0.73;100.00;96631.19;5070818;28;20341;-57
2022/01/25 05:29:30;;;;;;;19.27;9.63;;;;;;;-0.71;100.00;96639.72;5070838;28;20218;-59
2022/01/25 05:31:56;;;;;;;21.20;10.33;;;;;;;-0.72;100.00;96636.25;5054613;28;20198;-52
2022/01/25 05:34:21;;;;;;;20.03;9.10;;;;;;;-0.75;100.00;96628.81;5071112;28;20234;-61
2022/01/25 05:36:46;;;;;;;18.27;9.77;;;;;;;-0.75;100.00;96636.06;5070632;28;20178;-61
2022/01/25 05:39:16;;;;;;;22.27;9.73;;;;;;;-0.79;100.00;96638.56;5070687;28;20192;-61
2022/01/25 05:41:42;;;;;;;20.67;9.30;;;;;;;-0.78;100.00;96640.13;5070537;28;20284;-61
2022/01/25 05:44:40;;;;;;;20.37;9.93;;;;;;;-0.83;100.00;96637.53;5054560;28;20195;-61
2022/01/25 05:49:21;;;;;;;23.93;9.50;;;;;;;-0.79;100.00;96637.75;5054957;28;20178;-53
2022/01/25 05:51:47;;;;;;;20.10;9.73;;;;;;;-0.73;100.00;96642.69;5070596;28;20190;-62
2022/01/25 05:54:13;;;;;;;20.67;9.70;;;;;;;-0.71;100.00;96635.16;5070253;28;20211;-61
2022/01/25 05:56:39;;;;;;;19.57;9.93;;;;;;;-0.70;100.00;96641.31;5053190;28;20186;-62
2022/01/25 05:59:04;;;;;;;19.73;9.13;;;;;;;-0.68;100.00;96639.94;5053692;28;20185;-61
2022/01/25 06:01:29;;;;;;;19.40;9.43;;;;;;;-0.69;100.00;96642.91;5070315;28;20611;-62
2022/01/25 06:03:55;;;;;;;16.50;9.00;;;;;;;-0.66;100.00;96637.72;5070123;28;20183;-61
2022/01/25 06:06:21;;;;;;;18.03;9.30;;;;;;;-0.58;100.00;96639.69;5070229;28;20262;-66
2022/01/25 06:08:46;;;;;;;21.17;10.17;;;;;;;-0.55;100.00;96638.28;5053637;28;20188;-57
2022/01/25 06:11:12;;;;;;;19.63;9.07;;;;;;;-0.55;100.00;96632.94;5070631;28;20261;-50
2022/01/25 06:13:37;;;;;;;18.60;9.07;;;;;;;-0.58;100.00;96633.56;5070210;28;20185;-51
2022/01/25 06:16:03;;;;;;;17.80;8.90;;;;;;;-0.61;100.00;96623.44;5053898;28;20185;-51
2022/01/25 06:18:29;;;;;;;21.30;9.03;;;;;;;-0.74;100.00;96613.50;5070068;28;20218;-53
2022/01/25 06:20:54;;;;;;;17.90;8.90;;;;;;;-0.77;100.00;96622.16;5053154;28;20202;-51
2022/01/25 06:23:19;;;;;;;20.50;9.23;;;;;;;-0.77;100.00;96619.47;5070025;28;20194;-52
2022/01/25 06:25:45;;;;;;;19.53;8.50;;;;;;;-0.83;100.00;96615.31;5069809;28;20639;-60
2022/01/25 06:28:10;;;;;;;16.43;8.80;;;;;;;-0.85;100.00;96617.50;5053447;28;20202;-51
2022/01/25 06:30:35;;;;;;;16.20;8.60;;;;;;;-0.81;100.00;96613.13;5052784;28;20225;-52
2022/01/25 06:33:01;;;;;;;17.97;9.23;;;;;;;-0.73;100.00;96617.81;5069533;28;20198;-49
2022/01/25 06:35:31;;;;;;;17.20;9.23;;;;;;;-0.70;100.00;96623.34;5069712;28;20194;-50
2022/01/25 06:37:57;;;;;;;19.00;9.57;;;;;;;-0.70;100.00;96617.19;5069594;28;20274;-51
2022/01/25 06:40:24;;;;;;;19.13;9.10;;;;;;;-0.68;100.00;96620.34;5070290;28;20244;-52
2022/01/25 06:42:50;;;;;;;18.60;9.40;;;;;;;-0.61;100.00;96612.69;5070229;28;20201;-58
2022/01/25 06:45:22;;;;;;;17.13;9.40;;;;;;;-0.61;100.00;96620.75;5053256;28;20210;-60
2022/01/25 06:47:49;;;;;;;19.73;9.27;;;;;;;-0.57;100.00;96619.84;5052794;28;20201;-54
2022/01/25 06:50:17;;;;;;;19.17;9.93;;;;;;;-0.57;100.00;96630.56;5053201;28;20188;-56
2022/01/25 06:52:43;;;;;;;21.93;10.93;;;;;;;-0.58;100.00;96628.97;5053222;28;20276;-53
2022/01/25 06:55:12;;;;;;;19.80;9.80;;;;;;;-0.66;100.00;96632.38;5069874;28;20258;-53
2022/01/25 06:57:37;;;;;;;18.63;9.70;;;;;;;-0.57;100.00;96640.50;5052623;28;20193;-53
2022/01/25 07:00:09;;;;;;;18.37;10.10;;;;;;;-0.54;100.00;96635.31;5069331;28;20178;-54
2022/01/25 07:02:35;;;;;;;20.63;9.67;;;;;;;-0.50;100.00;96646.25;5069472;28;20611;-60
2022/01/25 07:05:01;;;;;;;21.03;10.20;;;;;;;-0.54;100.00;96645.25;5052781;28;20241;-58
2022/01/25 07:07:27;;;;;;;17.00;10.13;;;;;;;-0.55;100.00;96655.19;5052902;28;20216;-59
2022/01/25 07:09:52;;;;;;;19.93;9.60;;;;;;;-0.53;100.00;96652.22;5051620;28;20190;-56
2022/01/25 07:12:17;;;;;;;21.50;10.57;;;;;;;-0.53;100.00;96650.31;5069180;28;20212;-58
2022/01/25 07:14:43;;;;;;;20.23;10.00;;;;;;;-0.48;100.00;96654.75;5052561;28;20218;-58
2022/01/25 07:17:08;;;;;;;20.10;11.03;;;;;;;-0.45;100.00;96659.53;5052279;28;20197;-59
2022/01/25 07:19:33;;;;;;;21.73;11.23;;;;;;;-0.49;100.00;96662.03;5052441;28;20185;-59
2022/01/25 07:21:59;;;;;;;19.83;10.57;;;;;;;-0.49;100.00;96670.09;5069096;28;20183;-51
2022/01/25 07:24:24;;;;;;;21.10;10.77;;;;;;;-0.42;100.00;96665.09;5069234;28;20190;-60
2022/01/25 07:26:50;;;;;;;23.27;12.23;;;;;;;-0.41;100.00;96665.88;5052314;28;20175;-59
2022/01/25 07:29:16;;;;;;;23.23;11.23;;;;;;;-0.39;100.00;96664.47;5069041;28;20256;-60
2022/01/25 07:31:42;;;;;;;20.13;10.43;;;;;;;-0.33;100.00;96657.91;5068970;28;20186;-60
2022/01/25 07:34:07;;;;;;;21.07;11.23;;;;;;;-0.27;100.00;96655.91;5069271;28;20580;-59
2022/01/25 07:36:34;;;;;;;19.80;10.60;;;;;;;-0.37;100.00;96648.06;5068895;28;20245;-59
2022/01/25 07:39:00;;;;;;;22.63;11.07;;;;;;;-0.36;100.00;96652.38;5069489;28;20302;-63
2022/01/25 07:41:25;;;;;;;18.93;10.40;;;;;;;-0.28;100.00;96649.72;5051999;28;20210;-59
2022/01/25 07:43:50;;;;;;;20.57;11.60;;;;;;;-0.31;100.00;96649.56;5069304;28;20234;-59
2022/01/25 07:46:16;;;;;;;20.53;11.03;;;;;;;-0.26;100.00;96646.75;5068887;28;20202;-59
2022/01/25 07:48:42;;;;;;;23.37;11.83;;;;;;;-0.21;100.00;96655.47;5068801;28;20279;-58
2022/01/25 07:51:07;;;;;;;22.67;11.40;;;;;;;-0.19;100.00;96655.97;5052050;28;20185;-58
2022/01/25 07:53:33;;;;;;;22.60;11.03;;;;;;;-0.11;100.00;96665.19;5052906;28;20270;-59
2022/01/25 07:55:58;;;;;;;26.27;13.47;;;;;;;-0.04;100.00;96660.19;5052044;28;20278;-57
2022/01/25 07:58:23;;;;;;;21.47;11.90;;;;;;;-0.09;100.00;96663.00;5068463;28;20183;-58
2022/01/25 08:00:49;;;;;;;23.67;12.17;;;;;;;-0.05;100.00;96655.94;5052398;28;20245;-52
2022/01/25 08:03:17;;;;;;;24.73;12.57;;;;;;;-0.02;100.00;96663.38;5068570;28;20200;-54
2022/01/25 08:05:44;;;;;;;22.57;11.77;;;;;;;-0.03;100.00;96664.47;5068790;28;20230;-54
2022/01/25 08:08:10;;;;;;;21.93;11.73;;;;;;;0.03;100.00;96674.78;5052420;28;20269;-52
2022/01/25 08:10:36;;;;;;;24.47;12.83;;;;;;;0.13;100.00;96663.00;5069245;28;20253;-52
2022/01/25 08:13:01;;;;;;;27.50;13.97;;;;;;;0.17;100.00;96672.03;5068460;28;20185;-51
2022/01/25 08:15:26;;;;;;;22.30;11.90;;;;;;;0.18;100.00;96662.88;5051814;28;20597;-57
2022/01/25 08:17:52;;;;;;;27.70;13.93;;;;;;;0.22;100.00;96663.88;5068518;28;20187;-58
2022/01/25 08:20:17;;;;;;;24.77;13.10;;;;;;;0.27;100.00;96673.69;5069631;28;20200;-63
2022/01/25 08:22:44;;;;;;;25.03;13.97;;;;;;;0.39;100.00;96674.72;5071636;28;20187;-64
2022/01/25 08:25:10;;;;;;;25.20;13.67;;;;;;;0.51;100.00;96672.25;5071603;28;20672;-65
2022/01/25 08:27:36;;;;;;;25.73;13.03;;;;;;;0.43;100.00;96675.69;5071968;28;20184;-66
2022/01/25 08:30:01;;;;;;;28.93;13.97;;;;;;;0.50;100.00;96681.41;5054946;28;20242;-67
2022/01/25 08:32:26;;;;;;;27.43;14.13;;;;;;;0.51;100.00;96683.00;5071761;28;20210;-65
2022/01/25 08:34:52;;;;;;;25.97;13.87;;;;;;;0.62;100.00;96668.19;5054910;28;20198;-52
2022/01/25 08:37:17;;;;;;;26.80;13.90;;;;;;;0.71;100.00;96673.63;5071905;28;20269;-52
2022/01/25 08:39:42;;;;;;;25.63;13.37;;;;;;;0.77;100.00;96670.50;5071682;28;20214;-52
2022/01/25 08:42:09;;;;;;;25.50;13.80;;;;;;;0.80;100.00;96661.81;5071969;28;20194;-52
2022/01/25 08:44:35;;;;;;;26.90;13.60;;;;;;;0.76;100.00;96663.53;5071252;28;20687;-51
2022/01/25 08:47:01;;;;;;;26.73;14.83;;;;;;;0.81;100.00;96660.72;5071066;28;20697;-53
2022/01/25 08:49:27;;;;;;;27.77;15.23;;;;;;;0.88;100.00;96668.34;5071809;28;20182;-53
2022/01/25 08:51:53;;;;;;;23.33;13.43;;;;;;;0.97;100.00;96669.94;5071376;28;20186;-57
2022/01/25 08:54:18;;;;;;;22.47;12.77;;;;;;;0.99;100.00;96667.75;5071554;28;20177;-60
2022/01/25 08:56:44;;;;;;;23.17;13.23;;;;;;;1.00;100.00;96668.53;5054504;28;20192;-67
2022/01/25 08:59:11;;;;;;;25.97;14.73;;;;;;;1.07;100.00;96658.94;5054379;28;20188;-66
2022/01/25 09:01:36;;;;;;;27.10;14.30;;;;;;;1.18;100.00;96671.00;5071160;28;20182;-66
2022/01/25 09:04:02;;;;;;;25.47;14.33;;;;;;;1.32;100.00;96676.25;5054536;28;20520;-66
2022/01/25 09:06:28;;;;;;;28.03;14.53;;;;;;;1.45;100.00;96681.50;5071015;28;20304;-69
2022/01/25 09:09:00;;;;;;;26.03;14.33;;;;;;;1.61;100.00;96679.97;5070857;28;20223;-65
2022/01/25 09:11:25;;;;;;;27.57;15.07;;;;;;;1.79;100.00;96676.16;5071305;28;20204;-60
2022/01/25 09:13:51;;;;;;;29.20;16.83;;;;;;;1.99;100.00;96670.16;5054321;28;20265;-54
2022/01/25 09:16:16;;;;;;;25.87;15.17;;;;;;;2.13;100.00;96681.56;5054472;28;20185;-56
2022/01/25 09:18:43;;;;;;;26.33;14.33;;;;;;;2.47;100.00;96684.22;5054352;28;20178;-57
2022/01/25 09:21:09;;;;;;;23.57;14.17;;;;;;;2.96;100.00;96683.63;5054833;28;20216;-52
2022/01/25 09:23:34;;;;;;;27.90;14.47;;;;;;;3.58;100.00;96677.63;5070827;28;20186;-58
2022/01/25 09:26:01;;;;;;;23.37;14.47;;;;;;;3.73;100.00;96685.16;5054094;28;20214;-56
2022/01/25 09:28:26;;;;;;;24.60;14.30;;;;;;;3.87;100.00;96691.13;5053840;28;20332;-60
2022/01/25 09:30:52;;;;;;;22.03;13.80;;;;;;;4.17;100.00;96684.53;5070919;28;20264;-54
2022/01/25 09:33:17;;;;;;;23.37;14.60;;;;;;;4.46;100.00;96703.38;5069860;28;20174;-62
2022/01/25 09:35:43;;;;;;;23.57;14.27;;;;;;;4.68;100.00;96701.09;5054076;28;20189;-61
2022/01/25 09:38:09;;;;;;;22.70;14.40;;;;;;;4.80;100.00;96705.75;5053855;28;20186;-61
2022/01/25 09:40:34;;;;;;;21.77;14.03;;;;;;;6.10;100.00;96711.63;5071296;28;20202;-66
2022/01/25 09:43:00;;;;;;;22.00;14.23;;;;;;;6.04;100.00;96704.06;5053998;28;20190;-67
2022/01/25 09:45:26;;;;;;;21.83;14.23;;;;;;;6.11;100.00;96698.84;5070549;28;20225;-61
2022/01/25 09:47:52;;;;;;;22.00;14.53;;;;;;;7.11;100.00;96704.00;5070216;28;20653;-61
2022/01/25 09:50:18;;;;;;;19.97;14.07;;;;;;;7.12;100.00;96700.94;5054293;28;20542;-54
2022/01/25 09:52:45;;;;;;;23.07;15.13;;;;;;;6.89;100.00;96702.66;5054019;28;20219;-56
2022/01/25 09:55:13;;;;;;;21.83;14.67;;;;;;;7.07;100.00;96703.94;5070384;28;20607;-52
2022/01/25 09:57:40;;;;;;;23.07;14.00;;;;;;;7.53;100.00;96694.19;5070288;28;20663;-56
2022/01/25 10:00:08;;;;;;;21.13;13.53;;;;;;;8.14;100.00;96698.78;5070119;28;20190;-54
2022/01/25 10:03:07;;;;;;;19.13;14.00;;;;;;;8.34;100.00;96705.84;5070203;28;20277;-58
2022/01/25 10:05:36;;;;;;;19.20;13.30;;;;;;;8.85;100.00;96699.13;5070647;28;20601;-62
2022/01/25 10:08:09;;;;;;;20.53;13.53;;;;;;;8.75;100.00;96691.53;5070251;28;20296;-56
2022/01/25 10:10:38;;;;;;;18.93;13.43;;;;;;;8.71;100.00;96687.94;5053373;28;20192;-61
2022/01/25 10:13:18;;;;;;;14.70;11.87;;;;;;;9.19;100.00;96690.06;5070581;28;20188;-59
2022/01/25 10:15:45;;;;;;;18.63;12.60;;;;;;;9.56;100.00;96699.28;5053096;28;20188;-58
2022/01/25 10:18:11;;;;;;;16.97;13.23;;;;;;;9.24;100.00;96686.22;5054484;28;20185;-58
2022/01/25 10:20:49;;;;;;;16.90;13.27;;;;;;;9.26;100.00;96695.63;5070210;28;20221;-63
2022/01/25 10:23:21;;;;;;;14.93;11.53;;;;;;;9.11;100.00;96693.78;5070091;28;20173;-51
2022/01/25 10:25:48;;;;;;;14.13;11.10;;;;;;;9.58;100.00;96680.59;5070819;28;20202;-48
2022/01/25 10:28:16;;;;;;;14.40;11.07;;;;;;;9.57;100.00;96679.03;5070063;28;20185;-52
2022/01/25 10:30:41;;;;;;;16.37;11.57;;;;;;;9.97;100.00;96679.28;5053834;28;20209;-44
2022/01/25 10:33:37;;;;;;;13.30;10.93;;;;;;;9.44;100.00;96674.91;5053938;28;20197;-53
2022/01/25 10:36:19;;;;;;;13.77;11.43;;;;;;;9.14;100.00;96682.16;5070162;28;20239;-48
2022/01/25 10:38:47;;;;;;;14.50;11.77;;;;;;;9.47;100.00;96668.72;5070181;28;20189;-53
2022/01/25 10:41:18;;;;;;;14.00;10.27;;;;;;;9.87;100.00;96665.47;5069732;28;20588;-64
2022/01/25 10:43:45;;;;;;;15.40;10.47;;;;;;;9.86;100.00;96664.69;5069715;28;20235;-62
2022/01/25 10:46:17;;;;;;;17.53;10.00;;;;;;;10.38;100.00;96663.88;5069921;28;20208;-63
2022/01/25 10:48:49;;;;;;;21.67;9.97;;;;;;;10.18;97.97;96659.72;5052619;28;20198;-64
2022/01/25 10:51:21;;;;;;;14.37;10.07;;;;;;;9.79;100.00;96653.66;5069908;28;20182;-65
2022/01/25 10:54:00;;;;;;;16.97;10.40;;;;;;;9.35;100.00;96660.75;5069814;28;20189;-62
2022/01/25 10:56:26;;;;;;;13.40;9.17;;;;;;;9.02;100.00;96652.38;5069500;28;20193;-62
2022/01/25 10:59:01;;;;;;;17.37;9.33;;;;;;;8.41;100.00;96651.56;5052720;28;20196;-63
2022/01/25 11:01:38;;;;;;;17.83;9.33;;;;;;;7.93;100.00;96652.06;5069406;28;20200;-60
2022/01/25 11:04:06;;;;;;;11.17;8.47;;;;;;;7.66;100.00;96644.84;5069717;28;20181;-59
2022/01/25 11:06:32;;;;;;;14.00;8.90;;;;;;;7.46;100.00;96651.34;5069082;28;20619;-59
2022/01/25 11:09:00;;;;;;;13.93;9.20;;;;;;;7.15;100.00;96654.09;5069542;28;20280;-60
2022/01/25 11:11:30;;;;;;;12.40;8.83;;;;;;;6.99;100.00;96647.84;5069473;28;20221;-58
2022/01/25 11:13:58;;;;;;;12.10;8.57;;;;;;;6.54;100.00;96645.50;5052447;28;20231;-59
2022/01/25 11:16:24;;;;;;;13.67;8.43;;;;;;;6.14;100.00;96643.94;5053054;28;20217;-59
2022/01/25 11:18:49;;;;;;;18.97;11.60;;;;;;;5.91;100.00;96640.94;5052347;28;20204;-57
2022/01/25 11:21:16;;;;;;;12.40;7.83;;;;;;;5.75;100.00;96636.53;5052153;28;20215;-59
2022/01/25 11:23:42;;;;;;;17.53;10.40;;;;;;;5.70;100.00;96634.06;5068675;28;20231;-53
2022/01/25 11:26:11;;;;;;;11.53;7.57;;;;;;;5.50;100.00;96632.31;5068726;28;20216;-53
2022/01/25 11:28:38;;;;;;;12.83;8.03;;;;;;;5.28;100.00;96621.94;5052343;28;20186;-53
2022/01/25 11:31:11;;;;;;;13.33;7.57;;;;;;;5.31;100.00;96626.66;5052322;28;20209;-49
2022/01/25 11:33:41;;;;;;;9.60;6.67;;;;;;;5.31;100.00;96618.53;5068648;28;20189;-53
2022/01/25 11:36:10;;;;;;;12.47;7.10;;;;;;;5.20;100.00;96614.69;5069079;28;20224;-53
2022/01/25 11:38:46;;;;;;;15.37;7.37;;;;;;;5.16;100.00;96617.31;5052372;28;20191;-56
2022/01/25 11:41:15;;;;;;;12.23;6.50;;;;;;;5.18;100.00;96617.75;5052368;28;20188;-52
2022/01/25 11:44:02;;;;;;;8.63;5.67;;;;;;;5.12;100.00;96612.88;5068734;28;20184;-53
2022/01/25 11:46:27;;;;;;;17.40;7.53;;;;;;;5.11;100.00;96608.63;5068957;28;20212;-54
2022/01/25 11:48:52;;;;;;;9.37;5.70;;;;;;;5.16;100.00;96608.38;5068822;28;20198;-55
2022/01/25 11:51:19;;;;;;;15.00;6.27;;;;;;;5.19;100.00;96608.50;5069296;28;20197;-56
2022/01/25 11:53:47;;;;;;;11.70;5.77;;;;;;;5.22;100.00;96612.44;5068755;28;20326;-52
2022/01/25 11:56:13;;;;;;;12.83;5.27;;;;;;;5.24;100.00;96607.50;5071317;28;20644;-54
2022/01/25 11:58:40;;;;;;;8.50;5.53;;;;;;;5.25;100.00;96598.25;5055483;28;20274;-61
2022/01/25 12:01:17;;;;;;;16.93;6.53;;;;;;;5.26;100.00;96599.81;5072354;28;20193;-59
2022/01/25 12:03:45;;;;;;;11.60;6.37;;;;;;;5.28;100.00;96594.84;5055710;28;20305;-58
2022/01/25 12:06:23;;;;;;;12.23;7.00;;;;;;;5.31;100.00;96588.75;5072450;28;20219;-59
2022/01/25 12:11:40;;;;;;;12.33;6.33;;;;;;;5.35;100.00;96590.44;5056449;28;20283;-59
2022/01/25 12:14:10;;;;;;;17.73;6.63;;;;;;;5.44;100.00;96604.66;5055859;28;20194;-59
2022/01/25 12:16:43;;;;;;;10.77;5.93;;;;;;;5.44;100.00;96601.94;5055402;28;20193;-55
2022/01/25 12:19:12;;;;;;;7.60;5.50;;;;;;;5.37;100.00;96598.22;5071766;28;20194;-53
2022/01/25 12:24:26;;;;;;;11.67;5.93;;;;;;;5.37;100.00;96588.19;5056084;28;20193;-53
2022/01/25 12:27:29;;;;;;;12.07;6.73;;;;;;;5.46;100.00;96574.53;5071907;28;20362;-56
2022/01/25 12:30:03;;;;;;;11.60;5.97;;;;;;;5.45;100.00;96564.81;5054665;28;20214;-55
2022/01/25 12:32:37;;;;;;;14.80;7.00;;;;;;;5.45;100.00;96568.31;5055205;28;20690;-67
2022/01/25 12:35:19;;;;;;;17.93;7.57;;;;;;;5.48;100.00;96567.63;5055012;28;20194;-55
2022/01/25 12:37:45;;;;;;;10.67;6.53;;;;;;;5.49;100.00;96568.41;5071595;28;20254;-69
2022/01/25 12:40:25;;;;;;;10.60;6.53;;;;;;;5.48;100.00;96566.84;5055999;28;20234;-66
2022/01/25 12:42:51;;;;;;;12.00;7.00;;;;;;;5.53;100.00;96564.69;5054280;28;20274;-67
2022/01/25 12:45:21;;;;;;;14.80;7.13;;;;;;;5.54;100.00;96563.53;5071515;28;20243;-67
2022/01/25 12:48:09;;;;;;;10.17;6.90;;;;;;;5.53;100.00;96558.47;5071179;28;20188;-65
2022/01/25 12:50:39;;;;;;;12.77;8.20;;;;;;;5.67;100.00;96569.72;5054735;28;20240;-58
2022/01/25 12:53:07;;;;;;;16.33;8.43;;;;;;;5.62;100.00;96551.00;5071943;28;20186;-60
2022/01/25 12:55:36;;;;;;;20.77;9.87;;;;;;;5.51;100.00;96558.03;5071166;28;20208;-57
2022/01/25 12:58:03;;;;;;;18.93;11.33;;;;;;;5.50;100.00;96545.63;5054490;28;20220;-57
2022/01/25 13:00:42;;;;;;;18.27;11.43;;;;;;;5.54;100.00;96543.81;5071136;28;20191;-55
2022/01/25 13:03:12;;;;;;;22.33;12.20;;;;;;;5.54;100.00;96551.94;5071662;28;20180;-56
2022/01/25 13:05:44;;;;;;;24.40;14.33;;;;;;;5.51;100.00;96544.50;5054781;28;20215;-55